Time;durP1;ratioP1;P1;durP2;ratioP2;P2;SDS_P1;SDS_P2;PMS_P1;PMS_P2;Temp;Humidity;BMP_temperature;BMP_pressure;BME280_temperature;BME280_humidity;BME280_pressure;Samples;Min_cycle;Max_cycle;Signal;HPM_P1;HPM_P2
2022/01/04 00:01:52;;;;;;;16.33;8.57;;;;;;;;;;5012967;28;20233;-71
2022/01/04 00:04:18;;;;;;;15.77;8.40;;;;;;;;;;5014518;28;20217;-69
2022/01/04 00:06:46;;;;;;;17.07;8.73;;;;;;;;;;5014639;28;20268;-70
2022/01/04 00:09:12;;;;;;;20.13;9.70;;;;;;;;;;5014533;28;20211;-69
2022/01/04 00:11:59;;;;;;;23.63;10.03;;;;;;;;;;5015036;28;20675;-72
2022/01/04 00:14:26;;;;;;;17.13;9.90;;;;;;;;;;5014373;28;20226;-69
2022/01/04 00:16:55;;;;;;;16.53;10.17;;;;;;;;;;5012486;28;20241;-69
2022/01/04 00:19:22;;;;;;;20.07;9.87;;;;;;;;;;5013932;28;20796;-71
2022/01/04 00:21:48;;;;;;;25.87;10.77;;;;;;;;;;5014157;28;20268;-69
2022/01/04 00:24:14;;;;;;;18.17;10.30;;;;;;;;;;5013238;28;20238;-72
2022/01/04 00:26:41;;;;;;;20.23;10.70;;;;;;;;;;5012531;28;20375;-72
2022/01/04 00:29:07;;;;;;;19.57;10.47;;;;;;;;;;5013986;28;20223;-70
2022/01/04 00:31:35;;;;;;;19.37;10.80;;;;;;;;;;5013959;28;20279;-71
2022/01/04 00:34:01;;;;;;;18.90;10.53;;;;;;;;;;5012732;28;20274;-72
2022/01/04 00:36:28;;;;;;;23.47;10.97;;;;;;;;;;5014856;28;20684;-69
2022/01/04 00:38:54;;;;;;;22.23;11.37;;;;;;;;;;5012717;28;20586;-71
2022/01/04 00:41:20;;;;;;;17.47;10.83;;;;;;;;;;5013531;28;20231;-72
2022/01/04 00:43:47;;;;;;;22.00;10.57;;;;;;;;;;5014023;28;20221;-72
2022/01/04 00:46:16;;;;;;;20.17;11.17;;;;;;;;;;5011359;28;20671;-72
2022/01/04 00:51:34;;;;;;;20.17;10.73;;;;;;;;;;4999912;28;20219;-71
2022/01/04 00:54:00;;;;;;;21.57;11.70;;;;;;;;;;5014438;28;20725;-72
2022/01/04 00:56:27;;;;;;;19.93;11.23;;;;;;;;;;5011753;28;20260;-72
2022/01/04 00:58:53;;;;;;;20.33;11.27;;;;;;;;;;5013622;28;20229;-72
2022/01/04 01:01:20;;;;;;;25.50;12.20;;;;;;;;;;5014166;28;20281;-72
2022/01/04 01:03:47;;;;;;;23.70;12.87;;;;;;;;;;5012741;28;20589;-72
2022/01/04 01:06:14;;;;;;;21.17;12.57;;;;;;;;;;5015150;28;20217;-70
2022/01/04 01:08:41;;;;;;;23.07;12.23;;;;;;;;;;5012387;28;20224;-69
2022/01/04 01:11:08;;;;;;;23.27;12.93;;;;;;;;;;5012236;28;20243;-69
2022/01/04 01:13:35;;;;;;;21.90;12.13;;;;;;;;;;5014144;28;20345;-70
2022/01/04 01:16:02;;;;;;;23.83;12.17;;;;;;;;;;5014114;28;20286;-69
2022/01/04 01:18:29;;;;;;;18.93;11.73;;;;;;;;;;5012492;28;20244;-69
2022/01/04 01:20:56;;;;;;;26.87;13.27;;;;;;;;;;5014642;28;20265;-69
2022/01/04 01:23:23;;;;;;;24.97;12.90;;;;;;;;;;5013476;28;20208;-70
2022/01/04 01:25:51;;;;;;;22.70;12.80;;;;;;;;;;5012314;28;20279;-70
2022/01/04 01:28:18;;;;;;;21.77;12.23;;;;;;;;;;5013270;28;20267;-70
2022/01/04 01:30:45;;;;;;;22.37;13.33;;;;;;;;;;5013671;28;20213;-72
2022/01/04 01:33:12;;;;;;;23.10;12.53;;;;;;;;;;5012218;28;20260;-69
2022/01/04 01:35:40;;;;;;;26.77;13.10;;;;;;;;;;5013640;28;20267;-70
2022/01/04 01:38:08;;;;;;;23.73;12.60;;;;;;;;;;5014086;28;20940;-70
2022/01/04 01:40:35;;;;;;;23.83;13.20;;;;;;;;;;5012475;28;20268;-70
2022/01/04 01:43:03;;;;;;;19.87;12.93;;;;;;;;;;5013854;28;20270;-69
2022/01/04 01:45:29;;;;;;;26.07;13.90;;;;;;;;;;5014010;28;20281;-69
2022/01/04 01:47:56;;;;;;;20.93;12.90;;;;;;;;;;5013201;28;20644;-69
2022/01/04 01:50:22;;;;;;;22.63;13.80;;;;;;;;;;5012499;28;20212;-70
2022/01/04 01:52:51;;;;;;;22.90;13.20;;;;;;;;;;5014341;28;20212;-69
2022/01/04 01:55:21;;;;;;;22.43;13.03;;;;;;;;;;5011742;28;20327;-70
2022/01/04 01:57:48;;;;;;;25.87;12.80;;;;;;;;;;5011908;28;20231;-69
2022/01/04 02:00:18;;;;;;;25.20;12.47;;;;;;;;;;5012777;28;20221;-69
2022/01/04 02:02:45;;;;;;;22.43;11.47;;;;;;;;;;5011121;28;20235;-69
2022/01/04 02:05:12;;;;;;;23.73;12.67;;;;;;;;;;5012584;28;20209;-71
2022/01/04 02:07:42;;;;;;;27.47;13.27;;;;;;;;;;5012832;28;21089;-71
2022/01/04 02:10:10;;;;;;;24.13;13.23;;;;;;;;;;5012014;28;20233;-72
2022/01/04 02:12:42;;;;;;;20.80;12.33;;;;;;;;;;5011446;28;20213;-70
2022/01/04 02:15:11;;;;;;;26.70;13.97;;;;;;;;;;5015457;28;20222;-69
2022/01/04 02:17:38;;;;;;;21.97;12.80;;;;;;;;;;5016818;28;20240;-69
2022/01/04 02:20:08;;;;;;;19.37;12.37;;;;;;;;;;5015151;28;20212;-69
2022/01/04 02:22:35;;;;;;;20.03;12.80;;;;;;;;;;5017551;28;20566;-70
2022/01/04 02:25:01;;;;;;;22.40;13.33;;;;;;;;;;5014573;28;20248;-69
2022/01/04 02:27:28;;;;;;;21.93;13.43;;;;;;;;;;5015353;28;20218;-71
2022/01/04 02:29:54;;;;;;;26.13;13.53;;;;;;;;;;5016713;28;20220;-69
2022/01/04 02:32:21;;;;;;;23.77;13.60;;;;;;;;;;5016712;28;20233;-69
2022/01/04 02:34:48;;;;;;;27.07;15.13;;;;;;;;;;5015356;28;20211;-70
2022/01/04 02:37:18;;;;;;;22.87;14.23;;;;;;;;;;5015783;28;20227;-69
2022/01/04 02:39:45;;;;;;;25.60;15.47;;;;;;;;;;5014969;28;20225;-69
2022/01/04 02:42:11;;;;;;;20.60;13.80;;;;;;;;;;5015179;28;20212;-69
2022/01/04 02:44:37;;;;;;;23.67;15.57;;;;;;;;;;5016800;28;20263;-69
2022/01/04 02:47:04;;;;;;;25.07;15.67;;;;;;;;;;5017070;28;20236;-69
2022/01/04 02:49:31;;;;;;;25.87;14.50;;;;;;;;;;5012912;28;20288;-69
2022/01/04 02:51:57;;;;;;;22.47;15.10;;;;;;;;;;5014545;28;20279;-69
2022/01/04 02:54:25;;;;;;;28.10;16.83;;;;;;;;;;5013558;28;20636;-69
2022/01/04 02:56:51;;;;;;;25.47;13.40;;;;;;;;;;5012105;28;20224;-69
2022/01/04 02:59:18;;;;;;;23.70;14.93;;;;;;;;;;5012936;28;20228;-68
2022/01/04 03:01:44;;;;;;;22.73;14.50;;;;;;;;;;5013559;28;20235;-68
2022/01/04 03:04:10;;;;;;;21.17;15.10;;;;;;;;;;5013323;28;20222;-68
2022/01/04 03:06:38;;;;;;;26.30;15.77;;;;;;;;;;5015150;28;20220;-68
2022/01/04 03:09:05;;;;;;;25.77;15.47;;;;;;;;;;5016378;28;20841;-68
2022/01/04 03:11:34;;;;;;;23.83;14.70;;;;;;;;;;5016167;28;20384;-68
2022/01/04 03:14:00;;;;;;;26.47;16.43;;;;;;;;;;5015145;28;20210;-70
2022/01/04 03:16:27;;;;;;;25.13;16.33;;;;;;;;;;5014969;28;20224;-70
2022/01/04 03:19:06;;;;;;;23.60;16.77;;;;;;;;;;5015489;28;20290;-70
2022/01/04 03:21:35;;;;;;;27.80;17.13;;;;;;;;;;5013898;28;20405;-71
2022/01/04 03:24:02;;;;;;;28.57;17.10;;;;;;;;;;5015838;28;21163;-70
2022/01/04 03:26:29;;;;;;;28.30;16.17;;;;;;;;;;5014812;28;20235;-70
2022/01/04 03:28:57;;;;;;;25.60;17.67;;;;;;;;;;5013915;28;20633;-73
2022/01/04 03:31:23;;;;;;;23.07;16.10;;;;;;;;;;5014532;28;20321;-73
2022/01/04 03:33:50;;;;;;;23.00;16.23;;;;;;;;;;5015060;28;20282;-72
2022/01/04 03:36:20;;;;;;;27.30;16.67;;;;;;;;;;5013397;28;20210;-73
2022/01/04 03:38:47;;;;;;;23.57;16.10;;;;;;;;;;5014070;28;20230;-72
2022/01/04 03:41:14;;;;;;;20.90;16.13;;;;;;;;;;5013569;28;20745;-72
2022/01/04 03:43:40;;;;;;;27.93;17.00;;;;;;;;;;5012914;28;20223;-72
2022/01/04 03:46:08;;;;;;;24.90;16.60;;;;;;;;;;5014359;28;20214;-72
2022/01/04 03:48:35;;;;;;;25.83;16.47;;;;;;;;;;5013387;28;20720;-69
2022/01/04 03:51:01;;;;;;;26.87;16.60;;;;;;;;;;5013363;28;20224;-71
2022/01/04 03:53:28;;;;;;;23.07;16.63;;;;;;;;;;5016037;28;20266;-73
2022/01/04 03:55:54;;;;;;;25.67;17.60;;;;;;;;;;5015072;28;20271;-72
2022/01/04 03:58:21;;;;;;;23.97;17.57;;;;;;;;;;5012243;28;20341;-70
2022/01/04 04:00:48;;;;;;;24.80;17.43;;;;;;;;;;5014602;28;21105;-71
2022/01/04 04:03:15;;;;;;;23.33;16.93;;;;;;;;;;5014703;28;20227;-71
2022/01/04 04:05:42;;;;;;;28.03;19.67;;;;;;;;;;5013384;28;20253;-70
2022/01/04 04:08:08;;;;;;;31.13;18.70;;;;;;;;;;5014988;28;20264;-69
2022/01/04 04:10:35;;;;;;;25.93;18.13;;;;;;;;;;5014623;28;20240;-69
2022/01/04 04:13:01;;;;;;;25.47;17.57;;;;;;;;;;5013660;28;20581;-69
2022/01/04 04:15:28;;;;;;;27.33;18.37;;;;;;;;;;5013801;28;20273;-69
2022/01/04 04:17:54;;;;;;;26.60;17.33;;;;;;;;;;5015874;28;20295;-70
2022/01/04 04:20:22;;;;;;;23.33;18.10;;;;;;;;;;5013809;28;20216;-70
2022/01/04 04:22:48;;;;;;;25.73;17.77;;;;;;;;;;5015313;28;20214;-70
2022/01/04 04:25:15;;;;;;;24.40;17.93;;;;;;;;;;5013715;28;20255;-70
2022/01/04 04:27:41;;;;;;;23.67;17.10;;;;;;;;;;5013275;28;20221;-70
2022/01/04 04:30:09;;;;;;;25.80;18.03;;;;;;;;;;5014230;28;20256;-70
2022/01/04 04:32:35;;;;;;;26.57;16.33;;;;;;;;;;5014591;28;20232;-70
2022/01/04 04:35:02;;;;;;;22.93;17.23;;;;;;;;;;5013569;28;20213;-70
2022/01/04 04:37:29;;;;;;;24.43;16.20;;;;;;;;;;5012319;28;20262;-72
2022/01/04 04:39:56;;;;;;;25.57;16.77;;;;;;;;;;5013740;28;20240;-72
2022/01/04 04:42:23;;;;;;;26.93;17.07;;;;;;;;;;5012359;28;20216;-72
2022/01/04 04:44:49;;;;;;;24.77;18.07;;;;;;;;;;5013876;28;20218;-69
2022/01/04 04:47:15;;;;;;;22.53;17.20;;;;;;;;;;5015500;28;20283;-69
2022/01/04 04:49:42;;;;;;;22.73;18.23;;;;;;;;;;5013595;28;20709;-70
2022/01/04 04:52:08;;;;;;;24.03;17.50;;;;;;;;;;5012739;28;20668;-70
2022/01/04 04:54:36;;;;;;;28.50;18.90;;;;;;;;;;5014596;28;20496;-70
2022/01/04 04:57:03;;;;;;;23.83;17.40;;;;;;;;;;5012799;28;20283;-70
2022/01/04 04:59:29;;;;;;;24.93;17.17;;;;;;;;;;5013142;28;20631;-70
2022/01/04 05:01:56;;;;;;;25.20;18.23;;;;;;;;;;5014483;28;20626;-69
2022/01/04 05:04:22;;;;;;;26.30;18.37;;;;;;;;;;5013395;28;20204;-70
2022/01/04 05:06:48;;;;;;;26.97;18.97;;;;;;;;;;5013008;28;20263;-70
2022/01/04 05:09:15;;;;;;;24.43;18.87;;;;;;;;;;5013569;28;20218;-70
2022/01/04 05:11:42;;;;;;;26.13;17.70;;;;;;;;;;5014185;28;20240;-70
2022/01/04 05:14:09;;;;;;;26.43;19.40;;;;;;;;;;5011800;28;20239;-70
2022/01/04 05:16:35;;;;;;;25.60;18.83;;;;;;;;;;5013810;28;20231;-71
2022/01/04 05:19:02;;;;;;;26.13;19.30;;;;;;;;;;5012134;28;20262;-70
2022/01/04 05:21:28;;;;;;;25.83;18.73;;;;;;;;;;5013737;28;20226;-70
2022/01/04 05:23:55;;;;;;;28.87;19.53;;;;;;;;;;5013788;28;20243;-70
2022/01/04 05:26:21;;;;;;;25.43;19.20;;;;;;;;;;5011797;28;20239;-70
2022/01/04 05:28:49;;;;;;;30.17;19.77;;;;;;;;;;5011692;28;20662;-69
2022/01/04 05:31:16;;;;;;;28.93;18.40;;;;;;;;;;5013668;28;20678;-73
2022/01/04 05:33:42;;;;;;;25.87;18.73;;;;;;;;;;5012993;28;20261;-74
2022/01/04 05:36:08;;;;;;;24.80;19.40;;;;;;;;;;5013238;28;20211;-74
2022/01/04 05:38:35;;;;;;;23.53;19.57;;;;;;;;;;5012035;28;20253;-74
2022/01/04 05:41:01;;;;;;;24.70;17.40;;;;;;;;;;5011398;28;20237;-74
2022/01/04 05:43:28;;;;;;;24.57;18.23;;;;;;;;;;5013325;28;20284;-74
2022/01/04 05:45:56;;;;;;;27.70;19.57;;;;;;;;;;5012905;28;20258;-73
2022/01/04 05:48:22;;;;;;;25.70;19.00;;;;;;;;;;5013482;28;20313;-74
2022/01/04 05:50:49;;;;;;;27.17;18.60;;;;;;;;;;5011850;28;20255;-74
2022/01/04 05:53:15;;;;;;;30.60;19.80;;;;;;;;;;5012339;28;20216;-74
2022/01/04 05:55:42;;;;;;;27.50;18.40;;;;;;;;;;5012474;28;20909;-75
2022/01/04 05:58:08;;;;;;;26.90;19.33;;;;;;;;;;5011992;28;20262;-74
2022/01/04 06:00:35;;;;;;;28.43;20.30;;;;;;;;;;5012434;28;20223;-74
2022/01/04 06:03:03;;;;;;;30.80;20.20;;;;;;;;;;5011765;28;20259;-74
2022/01/04 06:05:30;;;;;;;27.17;18.90;;;;;;;;;;5011077;28;20208;-74
2022/01/04 06:07:56;;;;;;;26.63;19.00;;;;;;;;;;5011711;28;20214;-75
2022/01/04 06:10:23;;;;;;;28.77;19.77;;;;;;;;;;5012613;28;21267;-74
2022/01/04 06:15:38;;;;;;;26.53;18.40;;;;;;;;;;5011605;28;20332;-74
2022/01/04 06:18:06;;;;;;;26.23;18.83;;;;;;;;;;5012849;28;20229;-74
2022/01/04 06:20:32;;;;;;;32.90;19.60;;;;;;;;;;5010933;28;20237;-74
2022/01/04 06:22:59;;;;;;;25.43;19.33;;;;;;;;;;5012351;28;20215;-74
2022/01/04 06:25:25;;;;;;;29.40;20.10;;;;;;;;;;5012868;28;20294;-76
2022/01/04 06:27:53;;;;;;;26.87;19.00;;;;;;;;;;5012372;28;20226;-76
2022/01/04 06:30:22;;;;;;;26.80;19.67;;;;;;;;;;5012180;28;20222;-76
2022/01/04 06:32:49;;;;;;;25.83;18.67;;;;;;;;;;5011551;28;20633;-76
2022/01/04 06:35:16;;;;;;;29.73;19.50;;;;;;;;;;5010829;28;20208;-76
2022/01/04 06:37:46;;;;;;;26.17;19.00;;;;;;;;;;5011373;28;20308;-76
2022/01/04 06:40:14;;;;;;;27.00;18.97;;;;;;;;;;5011822;28;20236;-76
2022/01/04 06:42:40;;;;;;;26.30;19.07;;;;;;;;;;5013119;28;20274;-76
2022/01/04 06:45:08;;;;;;;27.27;19.43;;;;;;;;;;5010803;28;20216;-77
2022/01/04 06:47:34;;;;;;;25.50;19.13;;;;;;;;;;5012266;28;20236;-76
2022/01/04 06:50:01;;;;;;;29.50;20.10;;;;;;;;;;5011478;28;20209;-76
2022/01/04 06:52:29;;;;;;;29.60;20.50;;;;;;;;;;5012225;28;20224;-76
2022/01/04 06:54:55;;;;;;;29.77;20.07;;;;;;;;;;5014175;28;20289;-75
2022/01/04 06:57:22;;;;;;;30.10;20.07;;;;;;;;;;5012877;28;20290;-75
2022/01/04 06:59:49;;;;;;;25.73;18.37;;;;;;;;;;5011638;28;20270;-75
2022/01/04 07:02:15;;;;;;;25.50;18.83;;;;;;;;;;5015107;28;20232;-75
2022/01/04 07:04:41;;;;;;;21.53;16.80;;;;;;;;;;5017256;28;20252;-75
2022/01/04 07:07:08;;;;;;;21.97;16.40;;;;;;;;;;5015351;28;20254;-75
2022/01/04 07:09:36;;;;;;;19.90;16.13;;;;;;;;;;5013430;28;20215;-75
2022/01/04 07:12:02;;;;;;;22.57;16.20;;;;;;;;;;5012976;28;20280;-75
2022/01/04 07:14:29;;;;;;;20.87;17.00;;;;;;;;;;5013501;28;20268;-74
2022/01/04 07:16:55;;;;;;;21.67;16.70;;;;;;;;;;5012433;28;20238;-74
2022/01/04 07:19:22;;;;;;;25.90;17.70;;;;;;;;;;5012042;28;20231;-75
2022/01/04 07:21:48;;;;;;;28.63;19.40;;;;;;;;;;5015016;28;20660;-74
2022/01/04 07:24:15;;;;;;;28.43;18.67;;;;;;;;;;5010778;28;20267;-74
2022/01/04 07:26:43;;;;;;;28.17;19.80;;;;;;;;;;5014687;28;20228;-74
2022/01/04 07:29:09;;;;;;;31.27;19.63;;;;;;;;;;5010043;28;20219;-74
2022/01/04 07:31:35;;;;;;;27.67;19.83;;;;;;;;;;5013144;28;20236;-74
2022/01/04 07:34:02;;;;;;;30.43;21.13;;;;;;;;;;5013720;28;20722;-76
2022/01/04 07:36:30;;;;;;;34.67;24.57;;;;;;;;;;5013400;28;20263;-76
2022/01/04 07:38:57;;;;;;;35.90;22.27;;;;;;;;;;5015094;28;20221;-76
2022/01/04 07:41:23;;;;;;;36.00;24.10;;;;;;;;;;5011922;28;20229;-75
2022/01/04 07:43:53;;;;;;;35.33;23.53;;;;;;;;;;5014473;28;20216;-75
2022/01/04 07:46:20;;;;;;;33.60;23.37;;;;;;;;;;5012444;28;20734;-75
2022/01/04 07:48:47;;;;;;;40.17;24.43;;;;;;;;;;5011973;28;20268;-75
2022/01/04 07:51:13;;;;;;;35.20;24.27;;;;;;;;;;5012448;28;20207;-75
2022/01/04 07:53:39;;;;;;;36.23;24.00;;;;;;;;;;5011368;28;20599;-75
2022/01/04 07:56:06;;;;;;;38.07;24.47;;;;;;;;;;5011153;28;20370;-75
2022/01/04 07:58:33;;;;;;;35.80;24.97;;;;;;;;;;5010975;28;20730;-75
2022/01/04 08:01:01;;;;;;;35.90;25.07;;;;;;;;;;5012288;28;20307;-75
2022/01/04 08:03:27;;;;;;;36.73;24.57;;;;;;;;;;5012403;28;20829;-75
2022/01/04 08:05:54;;;;;;;35.17;24.23;;;;;;;;;;5008206;28;20626;-76
2022/01/04 08:08:20;;;;;;;37.43;25.30;;;;;;;;;;5010318;28;20212;-76
2022/01/04 08:10:48;;;;;;;37.27;26.33;;;;;;;;;;5009145;28;20279;-76
2022/01/04 08:13:14;;;;;;;43.93;26.03;;;;;;;;;;5011735;28;20211;-75
2022/01/04 08:15:40;;;;;;;44.73;27.83;;;;;;;;;;5011006;28;20635;-75
2022/01/04 08:18:08;;;;;;;37.03;25.17;;;;;;;;;;5008694;28;20228;-76
2022/01/04 08:20:35;;;;;;;42.73;27.33;;;;;;;;;;5011338;28;20237;-75
2022/01/04 08:23:02;;;;;;;43.77;27.93;;;;;;;;;;5011015;28;20917;-75
2022/01/04 08:25:29;;;;;;;47.80;28.50;;;;;;;;;;5012257;28;20239;-76
2022/01/04 08:27:55;;;;;;;44.47;27.40;;;;;;;;;;5010862;28;20224;-76
2022/01/04 08:30:22;;;;;;;47.63;28.67;;;;;;;;;;5011587;28;20213;-76
2022/01/04 08:32:50;;;;;;;42.27;26.80;;;;;;;;;;5011889;28;20227;-76
2022/01/04 08:35:19;;;;;;;40.80;26.97;;;;;;;;;;5011449;28;20205;-75
2022/01/04 08:37:45;;;;;;;45.53;28.50;;;;;;;;;;5010889;28;20362;-75
2022/01/04 08:40:12;;;;;;;36.77;24.97;;;;;;;;;;5009699;28;20380;-75
2022/01/04 08:42:39;;;;;;;38.63;26.77;;;;;;;;;;5011944;28;20881;-75
2022/01/04 08:45:08;;;;;;;28.13;17.47;;;;;;;;;;5007216;28;21235;-74
2022/01/04 08:47:34;;;;;;;22.30;16.47;;;;;;;;;;5007036;28;20235;-74
2022/01/04 08:50:01;;;;;;;24.80;17.37;;;;;;;;;;5006382;28;20208;-75
2022/01/04 08:52:28;;;;;;;29.03;18.83;;;;;;;;;;5004936;28;20224;-76
2022/01/04 08:54:55;;;;;;;30.47;17.77;;;;;;;;;;5007442;28;20290;-76
2022/01/04 08:57:23;;;;;;;28.00;20.23;;;;;;;;;;5007239;28;20207;-76
2022/01/04 08:59:54;;;;;;;30.03;20.93;;;;;;;;;;5006878;28;20853;-76
2022/01/04 09:02:20;;;;;;;34.83;22.40;;;;;;;;;;5004007;28;20234;-75
2022/01/04 09:04:46;;;;;;;41.73;24.97;;;;;;;;;;5005516;28;20672;-75
2022/01/04 09:07:13;;;;;;;53.80;28.50;;;;;;;;;;5005912;28;20216;-76
2022/01/04 09:09:41;;;;;;;49.70;29.37;;;;;;;;;;5006301;28;20224;-76
2022/01/04 09:12:08;;;;;;;45.63;28.03;;;;;;;;;;5008242;28;20212;-76
2022/01/04 09:14:43;;;;;;;45.13;27.40;;;;;;;;;;5003673;28;20507;-76
2022/01/04 09:19:55;;;;;;;45.50;28.20;;;;;;;;;;5004728;28;20593;-75
2022/01/04 09:22:21;;;;;;;40.07;24.03;;;;;;;;;;5009892;28;20587;-75
2022/01/04 09:24:49;;;;;;;39.53;24.30;;;;;;;;;;5009982;28;20240;-75
2022/01/04 09:27:16;;;;;;;39.93;25.23;;;;;;;;;;5011140;28;20204;-74
2022/01/04 09:29:42;;;;;;;35.33;23.63;;;;;;;;;;5009719;28;20213;-74
2022/01/04 09:32:13;;;;;;;38.83;23.90;;;;;;;;;;5011133;28;20227;-74
2022/01/04 09:34:40;;;;;;;43.03;24.37;;;;;;;;;;5009754;28;20213;-74
2022/01/04 09:37:07;;;;;;;37.83;23.53;;;;;;;;;;5010416;28;20215;-74
2022/01/04 09:39:33;;;;;;;32.53;21.50;;;;;;;;;;5010941;28;20221;-74
2022/01/04 09:42:01;;;;;;;39.37;20.83;;;;;;;;;;5010990;28;20227;-74
2022/01/04 09:44:28;;;;;;;34.90;21.53;;;;;;;;;;5009984;28;20214;-74
2022/01/04 09:46:55;;;;;;;36.10;18.37;;;;;;;;;;5009944;28;20322;-73
2022/01/04 09:49:22;;;;;;;32.03;18.10;;;;;;;;;;5010823;28;20212;-74
2022/01/04 09:51:50;;;;;;;31.83;18.50;;;;;;;;;;5009601;28;20213;-74
2022/01/04 09:54:20;;;;;;;31.50;18.20;;;;;;;;;;5009599;28;20209;-74
2022/01/04 09:56:47;;;;;;;32.00;19.30;;;;;;;;;;5007570;28;20232;-74
2022/01/04 09:59:15;;;;;;;35.67;19.27;;;;;;;;;;5010606;28;20210;-74
2022/01/04 10:01:45;;;;;;;29.13;18.60;;;;;;;;;;5009240;28;20668;-74
2022/01/04 10:04:12;;;;;;;35.13;18.33;;;;;;;;;;5011369;28;20207;-74
2022/01/04 10:06:41;;;;;;;34.87;18.83;;;;;;;;;;4995270;28;20267;-74
2022/01/04 10:09:11;;;;;;;26.57;16.63;;;;;;;;;;4995108;28;20361;-74
2022/01/04 10:11:42;;;;;;;32.07;16.50;;;;;;;;;;4995930;28;20376;-74
2022/01/04 10:17:04;;;;;;;23.33;12.20;;;;;;;;;;5048772;27;20604;-75
2022/01/04 10:19:32;;;;;;;21.93;9.27;;;;;;;;;;5040567;28;20218;-75
2022/01/04 10:22:11;;;;;;;16.17;5.97;;;;;;;;;;5043956;28;20222;-74
2022/01/04 10:24:38;;;;;;;12.03;4.27;;;;;;;;;;5039852;28;20697;-75
2022/01/04 10:27:22;;;;;;;4.87;2.17;;;;;;;;;;5039101;28;20219;-75
2022/01/04 10:29:49;;;;;;;7.70;2.30;;;;;;;;;;5031374;28;23092;-75
2022/01/04 10:32:17;;;;;;;5.83;2.00;;;;;;;;;;5034366;28;20769;-74
2022/01/04 10:34:48;;;;;;;6.40;2.23;;;;;;;;;;5037913;28;20234;-74
2022/01/04 10:37:38;;;;;;;8.37;2.50;;;;;;;;;;5034364;28;20241;-73
2022/01/04 10:40:08;;;;;;;15.27;3.50;;;;;;;;;;5036710;28;20227;-73
2022/01/04 10:42:34;;;;;;;7.50;2.03;;;;;;;;;;5032891;28;20215;-73
2022/01/04 10:45:24;;;;;;;5.93;1.53;;;;;;;;;;5034175;28;20509;-74
2022/01/04 10:47:52;;;;;;;5.43;2.50;;;;;;;;;;5029817;28;20312;-74
2022/01/04 10:50:30;;;;;;;6.20;2.17;;;;;;;;;;5030651;28;20215;-75
2022/01/04 10:52:56;;;;;;;9.30;2.67;;;;;;;;;;5030382;28;20218;-75
2022/01/04 10:55:23;;;;;;;7.03;2.60;;;;;;;;;;5031328;28;20299;-75
2022/01/04 10:57:49;;;;;;;9.70;2.30;;;;;;;;;;5031750;28;20219;-75
2022/01/04 11:00:18;;;;;;;4.47;2.47;;;;;;;;;;5037631;28;20282;-75
2022/01/04 11:02:45;;;;;;;4.63;1.80;;;;;;;;;;5036641;28;20293;-75
2022/01/04 11:05:14;;;;;;;8.80;2.30;;;;;;;;;;5035330;28;20212;-75
2022/01/04 11:07:56;;;;;;;6.20;2.57;;;;;;;;;;5034293;28;20576;-75
2022/01/04 11:10:24;;;;;;;7.07;2.37;;;;;;;;;;5034205;28;20317;-74
2022/01/04 11:12:51;;;;;;;6.43;2.37;;;;;;;;;;5036700;28;20256;-74
2022/01/04 11:15:18;;;;;;;6.10;2.17;;;;;;;;;;5034538;28;20230;-74
2022/01/04 11:17:45;;;;;;;6.23;1.67;;;;;;;;;;5035388;28;20291;-74
2022/01/04 11:20:13;;;;;;;8.83;1.90;;;;;;;;;;5035375;28;20211;-74
2022/01/04 11:22:41;;;;;;;5.20;2.37;;;;;;;;;;5034269;28;20297;-74
2022/01/04 11:25:08;;;;;;;10.03;2.23;;;;;;;;;;5034298;28;20629;-74
2022/01/04 11:27:36;;;;;;;5.40;2.30;;;;;;;;;;5025943;28;20251;-74
2022/01/04 11:30:07;;;;;;;6.00;1.90;;;;;;;;;;5021958;28;20222;-74
2022/01/04 11:32:39;;;;;;;5.17;1.60;;;;;;;;;;5023419;28;20231;-73
2022/01/04 11:35:12;;;;;;;3.23;1.13;;;;;;;;;;5032775;28;20206;-73
2022/01/04 11:37:41;;;;;;;3.17;1.00;;;;;;;;;;5032316;28;20219;-73
2022/01/04 11:40:22;;;;;;;3.60;1.00;;;;;;;;;;5032352;28;20311;-73
2022/01/04 11:42:48;;;;;;;1.57;0.77;;;;;;;;;;5031667;28;20211;-73
2022/01/04 11:45:16;;;;;;;2.13;0.90;;;;;;;;;;5033612;28;20207;-73
2022/01/04 11:47:47;;;;;;;1.93;1.00;;;;;;;;;;5030081;28;20231;-73
2022/01/04 11:50:16;;;;;;;3.40;1.07;;;;;;;;;;5031491;28;20220;-73
2022/01/04 11:52:46;;;;;;;2.20;1.07;;;;;;;;;;5031205;28;20622;-73
2022/01/04 11:55:17;;;;;;;1.90;0.90;;;;;;;;;;5030736;28;20316;-73
2022/01/04 11:57:44;;;;;;;2.50;0.90;;;;;;;;;;5033670;28;20238;-73
2022/01/04 12:00:13;;;;;;;3.37;0.90;;;;;;;;;;5029384;28;20258;-73
2022/01/04 12:02:40;;;;;;;4.73;0.80;;;;;;;;;;5032246;28;20223;-72
2022/01/04 12:05:13;;;;;;;5.07;1.10;;;;;;;;;;5029403;28;20665;-73
2022/01/04 12:07:46;;;;;;;7.03;1.10;;;;;;;;;;5031268;28;20253;-73
2022/01/04 12:10:41;;;;;;;3.20;0.87;;;;;;;;;;5029837;28;20226;-73
2022/01/04 12:13:16;;;;;;;5.87;0.97;;;;;;;;;;5030346;28;20272;-73
2022/01/04 12:15:54;;;;;;;1.63;0.90;;;;;;;;;;5029831;28;20244;-73
2022/01/04 12:19:00;;;;;;;1.83;0.90;;;;;;;;;;5030753;28;20850;-72
2022/01/04 12:21:29;;;;;;;0.90;0.60;;;;;;;;;;5031048;28;20253;-72
2022/01/04 12:23:58;;;;;;;3.13;0.80;;;;;;;;;;5031841;28;20280;-72
2022/01/04 12:26:27;;;;;;;2.70;0.70;;;;;;;;;;5029807;28;20239;-72
2022/01/04 12:29:19;;;;;;;4.20;0.70;;;;;;;;;;5030498;28;20222;-73
2022/01/04 12:31:47;;;;;;;6.33;1.10;;;;;;;;;;5021020;28;20266;-73
2022/01/04 12:34:41;;;;;;;6.07;1.03;;;;;;;;;;5030575;28;20207;-72
2022/01/04 12:37:15;;;;;;;3.90;0.90;;;;;;;;;;5019110;28;20234;-73
2022/01/04 12:39:43;;;;;;;2.37;0.97;;;;;;;;;;5028604;28;20959;-73
2022/01/04 12:42:12;;;;;;;2.10;0.80;;;;;;;;;;5030829;28;20223;-73
2022/01/04 12:44:38;;;;;;;8.43;0.80;;;;;;;;;;5032883;28;20211;-73
2022/01/04 12:47:07;;;;;;;3.43;0.73;;;;;;;;;;5030967;28;20364;-74
2022/01/04 12:49:34;;;;;;;4.30;0.70;;;;;;;;;;5031195;28;20207;-73
2022/01/04 12:52:03;;;;;;;6.87;1.13;;;;;;;;;;5029563;28;20246;-73
2022/01/04 12:54:31;;;;;;;7.90;0.83;;;;;;;;;;5029923;28;20234;-73
2022/01/04 12:57:01;;;;;;;6.10;1.30;;;;;;;;;;5027546;28;20229;-73
2022/01/04 12:59:35;;;;;;;4.73;0.73;;;;;;;;;;5029305;28;20212;-73
2022/01/04 13:02:04;;;;;;;6.47;1.10;;;;;;;;;;5030490;28;20254;-73
2022/01/04 13:04:33;;;;;;;2.87;0.70;;;;;;;;;;5029971;28;20260;-73
2022/01/04 13:07:00;;;;;;;1.03;0.70;;;;;;;;;;5029722;28;20764;-73
2022/01/04 13:09:28;;;;;;;3.83;1.17;;;;;;;;;;5028711;28;20211;-73
2022/01/04 13:11:56;;;;;;;4.23;0.80;;;;;;;;;;5029595;28;20743;-73
2022/01/04 13:14:25;;;;;;;3.03;0.90;;;;;;;;;;5026570;28;20673;-73
2022/01/04 13:17:00;;;;;;;3.83;0.80;;;;;;;;;;5027542;28;20239;-73
2022/01/04 13:19:27;;;;;;;10.37;1.40;;;;;;;;;;5027072;28;20210;-73
2022/01/04 13:21:55;;;;;;;3.67;0.80;;;;;;;;;;5017545;28;20225;-73
2022/01/04 13:24:32;;;;;;;4.20;0.87;;;;;;;;;;5017910;28;20712;-73
2022/01/04 13:27:31;;;;;;;3.83;0.90;;;;;;;;;;5015575;28;20194;-73
2022/01/04 13:30:01;;;;;;;4.80;0.70;;;;;;;;;;4978431;28;20212;-74
2022/01/04 13:32:29;;;;;;;3.57;1.40;;;;;;;;;;5009206;28;20796;-74
2022/01/04 13:34:58;;;;;;;5.93;1.10;;;;;;;;;;5017187;28;20265;-74
2022/01/04 13:37:25;;;;;;;4.40;1.20;;;;;;;;;;5018229;28;20231;-73
2022/01/04 13:39:51;;;;;;;5.63;1.43;;;;;;;;;;5017879;28;20619;-74
2022/01/04 13:42:35;;;;;;;7.07;1.13;;;;;;;;;;5017743;28;20216;-74
2022/01/04 13:45:09;;;;;;;2.77;1.10;;;;;;;;;;5016132;28;20260;-73
2022/01/04 13:47:38;;;;;;;6.73;1.20;;;;;;;;;;5017442;28;20478;-74
2022/01/04 13:50:20;;;;;;;6.13;0.90;;;;;;;;;;5018425;28;20241;-74
2022/01/04 13:52:58;;;;;;;9.23;1.60;;;;;;;;;;5016898;28;20257;-74
2022/01/04 13:55:25;;;;;;;7.27;1.00;;;;;;;;;;5016888;28;20685;-74
2022/01/04 13:57:51;;;;;;;5.80;1.80;;;;;;;;;;5016999;28;20231;-74
2022/01/04 14:00:34;;;;;;;5.53;1.40;;;;;;;;;;5016998;28;20257;-73
2022/01/04 14:03:01;;;;;;;4.83;1.10;;;;;;;;;;5018727;28;20889;-74
2022/01/04 14:05:35;;;;;;;3.70;1.10;;;;;;;;;;5016476;28;20570;-73
2022/01/04 14:08:02;;;;;;;5.90;1.53;;;;;;;;;;5017846;28;20210;-75
2022/01/04 14:10:46;;;;;;;3.50;0.97;;;;;;;;;;5019448;28;20237;-73
2022/01/04 14:13:33;;;;;;;2.33;0.93;;;;;;;;;;5016100;28;20218;-73
2022/01/04 14:16:08;;;;;;;4.27;1.00;;;;;;;;;;5015933;28;20289;-74
2022/01/04 14:18:35;;;;;;;4.67;1.00;;;;;;;;;;5014310;28;20229;-74
2022/01/04 14:21:02;;;;;;;6.50;1.03;;;;;;;;;;5018857;28;20545;-74
2022/01/04 14:23:33;;;;;;;4.93;0.70;;;;;;;;;;5018922;28;21156;-74
2022/01/04 14:26:04;;;;;;;4.73;1.20;;;;;;;;;;5021714;28;20325;-74
2022/01/04 14:28:31;;;;;;;2.93;1.10;;;;;;;;;;5020020;28;20219;-74
2022/01/04 14:30:57;;;;;;;4.80;1.50;;;;;;;;;;5020892;28;20227;-74
2022/01/04 14:33:26;;;;;;;5.57;1.23;;;;;;;;;;5018275;28;20215;-74
2022/01/04 14:35:54;;;;;;;4.30;0.80;;;;;;;;;;5020452;28;20215;-73
2022/01/04 14:38:21;;;;;;;4.87;1.03;;;;;;;;;;5021440;28;20199;-74
2022/01/04 14:40:48;;;;;;;6.33;1.20;;;;;;;;;;5020306;28;20289;-73
2022/01/04 14:43:14;;;;;;;2.37;0.80;;;;;;;;;;5019822;28;20615;-74